Time;durP1;ratioP1;P1;durP2;ratioP2;P2;SDS_P1;SDS_P2;PMS_P1;PMS_P2;Temp;Humidity;BMP_temperature;BMP_pressure;BME280_temperature;BME280_humidity;BME280_pressure;Samples;Min_cycle;Max_cycle;Signal;HPM_P1;HPM_P2
2023/05/03 00:00:01;;;;;;;6.57;1.80;;;;;;;;;;5027964;28;20032;-67
2023/05/03 00:02:27;;;;;;;;;;;;;;;;;;5010156;28;20081;-67
2023/05/03 00:04:53;;;;;;;6.90;1.60;;;;;;;;;;5018793;28;20016;-67
2023/05/03 00:07:21;;;;;;;5.75;1.33;;;;;;;;;;5027001;28;20860;-67
2023/05/03 00:09:48;;;;;;;6.80;1.85;;;;;;;;;;5027758;28;20570;-67
2023/05/03 00:12:15;;;;;;;5.50;1.50;;;;;;;;;;5009017;28;20246;-67
2023/05/03 00:14:41;;;;;;;8.40;1.80;;;;;;;;;;5022646;28;20313;-67
2023/05/03 00:17:07;;;;;;;8.32;1.88;;;;;;;;;;5026142;28;20370;-67
2023/05/03 00:19:34;;;;;;;7.05;1.70;;;;;;;;;;5029803;28;20591;-68
2023/05/03 00:22:00;;;;;;;5.95;1.40;;;;;;;;;;5031762;28;20036;-68
2023/05/03 00:24:27;;;;;;;5.95;1.38;;;;;;;;;;5032362;28;20130;-70
2023/05/03 00:26:53;;;;;;;5.40;1.55;;;;;;;;;;5031678;28;20475;-70
2023/05/03 00:29:21;;;;;;;;;;;;;;;;;;5010217;28;20034;-68
2023/05/03 00:31:47;;;;;;;5.30;1.42;;;;;;;;;;5008503;28;19923;-68
2023/05/03 00:34:13;;;;;;;;;;;;;;;;;;5029236;28;20418;-67
2023/05/03 00:36:39;;;;;;;5.68;1.50;;;;;;;;;;5011090;28;19916;-68
2023/05/03 00:39:05;;;;;;;7.40;1.40;;;;;;;;;;5025599;28;20056;-67
2023/05/03 00:41:31;;;;;;;;;;;;;;;;;;5016566;28;20740;-67
2023/05/03 00:43:57;;;;;;;4.60;1.20;;;;;;;;;;5016215;28;20828;-67
2023/05/03 00:46:24;;;;;;;4.68;1.02;;;;;;;;;;5014059;28;20501;-68
2023/05/03 00:48:50;;;;;;;4.53;1.23;;;;;;;;;;5027408;28;20079;-67
2023/05/03 00:51:17;;;;;;;4.47;1.00;;;;;;;;;;5014940;28;20057;-67
2023/05/03 00:53:43;;;;;;;5.97;1.13;;;;;;;;;;5030375;28;20036;-67
2023/05/03 00:56:10;;;;;;;;;;;;;;;;;;5030680;28;20691;-67
2023/05/03 00:58:38;;;;;;;;;;;;;;;;;;5025660;28;19912;-67
2023/05/03 01:01:08;;;;;;;4.55;1.10;;;;;;;;;;5029489;28;19909;-68
2023/05/03 01:03:36;;;;;;;3.63;1.20;;;;;;;;;;5022160;28;20558;-68
2023/05/03 01:06:27;;;;;;;5.70;1.17;;;;;;;;;;5031948;28;20526;-69
2023/05/03 01:08:59;;;;;;;5.75;1.10;;;;;;;;;;5000348;28;20119;-67
2023/05/03 01:11:41;;;;;;;4.30;1.30;;;;;;;;;;5025675;28;20048;-67
2023/05/03 01:14:29;;;;;;;3.78;1.15;;;;;;;;;;5027835;28;20056;-67
2023/05/03 01:17:01;;;;;;;3.90;1.10;;;;;;;;;;5016616;28;20037;-67
2023/05/03 01:19:36;;;;;;;4.03;1.13;;;;;;;;;;5020385;28;20415;-68
2023/05/03 01:22:10;;;;;;;3.65;1.00;;;;;;;;;;5012654;28;20616;-68
2023/05/03 01:24:37;;;;;;;4.38;0.90;;;;;;;;;;5027233;28;20460;-67
2023/05/03 01:27:04;;;;;;;5.47;1.20;;;;;;;;;;5025026;28;20391;-67
2023/05/03 01:29:30;;;;;;;4.82;1.20;;;;;;;;;;5027353;28;20041;-67
2023/05/03 01:31:56;;;;;;;;;;;;;;;;;;5028346;28;20401;-67
2023/05/03 01:34:28;;;;;;;3.67;0.98;;;;;;;;;;5026399;28;20367;-67
2023/05/03 01:36:58;;;;;;;3.00;0.95;;;;;;;;;;5028029;28;20036;-69
2023/05/03 01:39:28;;;;;;;4.88;1.00;;;;;;;;;;5025121;28;20057;-69
2023/05/03 01:41:55;;;;;;;3.28;1.13;;;;;;;;;;5007959;28;20139;-67
2023/05/03 01:44:22;;;;;;;5.13;1.30;;;;;;;;;;5010679;28;20069;-67
2023/05/03 01:46:48;;;;;;;3.67;1.10;;;;;;;;;;5008971;28;20088;-67
2023/05/03 01:49:15;;;;;;;;;;;;;;;;;;5031491;28;20525;-68
2023/05/03 01:51:41;;;;;;;4.72;1.23;;;;;;;;;;5024419;28;20003;-67
2023/05/03 01:54:07;;;;;;;;;;;;;;;;;;5026602;28;20067;-67
2023/05/03 01:56:34;;;;;;;4.50;1.00;;;;;;;;;;5003512;28;19946;-67
2023/05/03 01:59:00;;;;;;;3.53;1.00;;;;;;;;;;5027507;28;20028;-67
2023/05/03 02:01:26;;;;;;;;;;;;;;;;;;5024982;28;20339;-67
2023/05/03 02:03:52;;;;;;;3.83;1.02;;;;;;;;;;5027795;28;20623;-67
2023/05/03 02:06:18;;;;;;;4.25;1.10;;;;;;;;;;5024178;28;20056;-67
2023/05/03 02:08:44;;;;;;;5.65;1.70;;;;;;;;;;5023956;28;20439;-67
2023/05/03 02:11:10;;;;;;;;;;;;;;;;;;5012292;28;20091;-67
2023/05/03 02:13:38;;;;;;;9.48;4.03;;;;;;;;;;5023248;28;19913;-67
2023/05/03 02:16:04;;;;;;;8.50;3.47;;;;;;;;;;5009013;28;20441;-67
2023/05/03 02:18:30;;;;;;;;;;;;;;;;;;5027682;28;20045;-67
2023/05/03 02:20:56;;;;;;;10.32;3.30;;;;;;;;;;5023880;28;19994;-67
2023/05/03 02:23:23;;;;;;;6.28;2.10;;;;;;;;;;5011018;28;20431;-68
2023/05/03 02:25:49;;;;;;;6.82;1.85;;;;;;;;;;5026264;28;20609;-67
2023/05/03 02:28:15;;;;;;;6.07;1.70;;;;;;;;;;5027818;28;20684;-67
2023/05/03 02:30:41;;;;;;;;;;;;;;;;;;5003788;28;20032;-67
2023/05/03 02:33:07;;;;;;;7.75;2.00;;;;;;;;;;5030866;28;20461;-67
2023/05/03 02:35:33;;;;;;;;;;;;;;;;;;5023461;28;20083;-68
2023/05/03 02:37:59;;;;;;;5.00;1.30;;;;;;;;;;5027591;28;20011;-67
2023/05/03 02:40:25;;;;;;;;;;;;;;;;;;5027949;28;20094;-67
2023/05/03 02:42:52;;;;;;;6.93;1.50;;;;;;;;;;5006765;28;19916;-68
2023/05/03 02:45:18;;;;;;;;;;;;;;;;;;5013495;28;20041;-68
2023/05/03 02:47:44;;;;;;;5.38;1.30;;;;;;;;;;5025211;28;19913;-67
2023/05/03 02:50:10;;;;;;;4.50;1.00;;;;;;;;;;5008997;28;20051;-67
2023/05/03 02:52:36;;;;;;;5.68;1.20;;;;;;;;;;5024442;28;20032;-67
2023/05/03 02:55:02;;;;;;;;;;;;;;;;;;5012476;28;20367;-67
2023/05/03 02:57:28;;;;;;;4.57;1.10;;;;;;;;;;5027000;28;19912;-67
2023/05/03 02:59:54;;;;;;;;;;;;;;;;;;5028857;28;20109;-68
2023/05/03 03:02:20;;;;;;;4.43;1.30;;;;;;;;;;5027995;28;19913;-67
2023/05/03 03:04:47;;;;;;;4.47;1.10;;;;;;;;;;5007098;28;20329;-67
2023/05/03 03:07:13;;;;;;;;;;;;;;;;;;5030016;28;20029;-68
2023/05/03 03:09:39;;;;;;;3.47;1.20;;;;;;;;;;5022167;28;20334;-67
2023/05/03 03:12:05;;;;;;;4.32;1.20;;;;;;;;;;5026625;28;20073;-67
2023/05/03 03:14:31;;;;;;;4.82;1.15;;;;;;;;;;5028545;28;20041;-67
2023/05/03 03:16:58;;;;;;;4.20;1.00;;;;;;;;;;5026988;28;20549;-68
2023/05/03 03:19:24;;;;;;;4.53;1.08;;;;;;;;;;5012504;28;20443;-67
2023/05/03 03:21:50;;;;;;;;;;;;;;;;;;5027363;28;20659;-67
2023/05/03 03:24:16;;;;;;;8.05;1.58;;;;;;;;;;5026424;28;20308;-67
2023/05/03 03:26:42;;;;;;;;;;;;;;;;;;5008586;28;20030;-68
2023/05/03 03:29:08;;;;;;;5.70;1.60;;;;;;;;;;5028365;28;19920;-67
2023/05/03 03:31:35;;;;;;;;;;;;;;;;;;5025645;28;20316;-67
2023/05/03 03:34:01;;;;;;;5.05;1.25;;;;;;;;;;5029174;28;19999;-67
2023/05/03 03:36:27;;;;;;;;;;;;;;;;;;5010765;28;20422;-68
2023/05/03 03:38:53;;;;;;;9.70;4.50;;;;;;;;;;5025475;28;19916;-67
2023/05/03 03:41:19;;;;;;;;;;;;;;;;;;5022761;28;20321;-68
2023/05/03 03:43:45;;;;;;;7.43;2.35;;;;;;;;;;5022371;28;19931;-67
2023/05/03 03:46:11;;;;;;;;;;;;;;;;;;5023895;28;20029;-67
2023/05/03 03:48:38;;;;;;;7.10;1.70;;;;;;;;;;5021680;28;19919;-67
2023/05/03 03:51:04;;;;;;;6.25;1.40;;;;;;;;;;5027992;28;20130;-67
2023/05/03 03:53:30;;;;;;;;;;;;;;;;;;5033333;28;20246;-67
2023/05/03 03:55:56;;;;;;;7.00;1.70;;;;;;;;;;5011439;28;19916;-67
2023/05/03 03:58:22;;;;;;;;;;;;;;;;;;5032475;28;20033;-67
2023/05/03 04:00:48;;;;;;;6.38;1.83;;;;;;;;;;5023101;28;20267;-68
2023/05/03 04:03:14;;;;;;;;;;;;;;;;;;5029523;28;20832;-68
2023/05/03 04:05:40;;;;;;;5.20;1.40;;;;;;;;;;5008769;28;19913;-67
2023/05/03 04:08:06;;;;;;;5.63;1.60;;;;;;;;;;5030384;28;20108;-67
2023/05/03 04:10:32;;;;;;;;;;;;;;;;;;5025193;28;20082;-67
2023/05/03 04:12:59;;;;;;;5.78;1.33;;;;;;;;;;5028248;28;20074;-68
2023/05/03 04:15:25;;;;;;;;;;;;;;;;;;5013433;28;20785;-67
2023/05/03 04:17:51;;;;;;;9.43;2.35;;;;;;;;;;5011369;28;20098;-69
2023/05/03 04:20:18;;;;;;;;;;;;;;;;;;5015932;28;20384;-67
2023/05/03 04:22:44;;;;;;;9.25;2.80;;;;;;;;;;5006881;28;19914;-67
2023/05/03 04:25:13;;;;;;;9.05;2.60;;;;;;;;;;5013106;28;20061;-69
2023/05/03 04:27:40;;;;;;;8.65;2.67;;;;;;;;;;5009469;28;20040;-68
2023/05/03 04:30:06;;;;;;;11.32;2.80;;;;;;;;;;5007287;28;20035;-68
2023/05/03 04:32:36;;;;;;;9.23;2.38;;;;;;;;;;5004962;28;20550;-67
2023/05/03 04:35:08;;;;;;;11.43;2.63;;;;;;;;;;5008548;28;20325;-67
2023/05/03 04:37:34;;;;;;;7.10;2.28;;;;;;;;;;5009099;28;20048;-67
2023/05/03 04:40:01;;;;;;;6.93;1.90;;;;;;;;;;5003835;28;20447;-68
2023/05/03 04:42:27;;;;;;;6.15;1.77;;;;;;;;;;5026728;28;20400;-68
2023/05/03 04:44:53;;;;;;;10.23;2.47;;;;;;;;;;5022326;28;20377;-68
2023/05/03 04:47:20;;;;;;;;;;;;;;;;;;5009629;28;20699;-68
2023/05/03 04:49:46;;;;;;;8.35;2.58;;;;;;;;;;5004538;28;19923;-68
2023/05/03 04:52:13;;;;;;;10.43;2.72;;;;;;;;;;5011394;28;20068;-68
2023/05/03 04:54:39;;;;;;;7.00;2.58;;;;;;;;;;5006336;28;20033;-67
2023/05/03 04:57:05;;;;;;;7.20;2.40;;;;;;;;;;5003972;28;20030;-67
2023/05/03 04:59:32;;;;;;;10.32;2.38;;;;;;;;;;5003844;28;20512;-68
2023/05/03 05:01:58;;;;;;;;;;;;;;;;;;5006894;28;20025;-68
2023/05/03 05:04:25;;;;;;;7.63;2.50;;;;;;;;;;5008024;28;19920;-68
2023/05/03 05:06:52;;;;;;;10.30;2.45;;;;;;;;;;5004642;28;20095;-68
2023/05/03 05:09:22;;;;;;;8.57;2.30;;;;;;;;;;5001952;28;20660;-68
2023/05/03 05:11:49;;;;;;;7.20;2.15;;;;;;;;;;5003499;28;20037;-68
2023/05/03 05:14:15;;;;;;;7.25;2.05;;;;;;;;;;5008659;28;20040;-68
2023/05/03 05:16:41;;;;;;;8.27;2.20;;;;;;;;;;5004061;28;20384;-67
2023/05/03 05:19:07;;;;;;;;;;;;;;;;;;5007919;28;20125;-67
2023/05/03 05:21:33;;;;;;;8.20;1.63;;;;;;;;;;5003641;28;19921;-67
2023/05/03 05:24:00;;;;;;;6.32;1.90;;;;;;;;;;5003140;28;20032;-68
2023/05/03 05:26:29;;;;;;;8.85;2.03;;;;;;;;;;5000956;28;21037;-68
2023/05/03 05:28:55;;;;;;;7.90;2.55;;;;;;;;;;5000368;28;20044;-68
2023/05/03 05:31:21;;;;;;;;;;;;;;;;;;5007107;28;20022;-68
2023/05/03 05:33:47;;;;;;;9.85;2.60;;;;;;;;;;5007057;28;19916;-68
2023/05/03 05:36:14;;;;;;;7.90;2.30;;;;;;;;;;5008252;28;20478;-68
2023/05/03 05:38:40;;;;;;;6.63;2.08;;;;;;;;;;4999055;28;20323;-68
2023/05/03 05:41:06;;;;;;;10.07;2.35;;;;;;;;;;5001863;28;20112;-67
2023/05/03 05:43:32;;;;;;;8.75;2.40;;;;;;;;;;5004524;28;20029;-67
2023/05/03 05:45:58;;;;;;;;;;;;;;;;;;5003141;28;20037;-67
2023/05/03 05:48:25;;;;;;;10.25;2.50;;;;;;;;;;5001658;28;20534;-70
2023/05/03 05:50:51;;;;;;;8.23;2.67;;;;;;;;;;5004217;28;20033;-69
2023/05/03 05:53:17;;;;;;;;;;;;;;;;;;5002339;28;20407;-67
2023/05/03 05:55:43;;;;;;;5.53;1.75;;;;;;;;;;5004089;28;19924;-68
2023/05/03 05:58:11;;;;;;;;;;;;;;;;;;5005402;28;20095;-67
2023/05/03 06:00:37;;;;;;;8.32;2.20;;;;;;;;;;5002074;28;20166;-68
2023/05/03 06:03:03;;;;;;;;;;;;;;;;;;5003912;28;20319;-68
2023/05/03 06:05:29;;;;;;;6.93;2.00;;;;;;;;;;5003946;28;20434;-67
2023/05/03 06:07:55;;;;;;;;;;;;;;;;;;5001793;28;20037;-67
2023/05/03 06:10:21;;;;;;;16.17;5.22;;;;;;;;;;5005331;28;19920;-67
2023/05/03 06:12:47;;;;;;;;;;;;;;;;;;5001379;28;20045;-67
2023/05/03 06:15:14;;;;;;;8.95;3.03;;;;;;;;;;5007187;28;20528;-68
2023/05/03 06:17:40;;;;;;;11.57;4.80;;;;;;;;;;5000860;28;20045;-68
2023/05/03 06:20:10;;;;;;;;;;;;;;;;;;5019550;28;20485;-67
2023/05/03 06:22:36;;;;;;;9.65;2.60;;;;;;;;;;5023239;28;19913;-70
2023/05/03 06:25:03;;;;;;;8.63;3.42;;;;;;;;;;5012085;28;20036;-68
2023/05/03 06:27:29;;;;;;;9.15;3.88;;;;;;;;;;5026029;28;20032;-68
2023/05/03 06:29:55;;;;;;;13.15;5.78;;;;;;;;;;5006892;28;20036;-67
2023/05/03 06:32:22;;;;;;;;;;;;;;;;;;5029017;28;20037;-68
2023/05/03 06:34:49;;;;;;;10.83;3.27;;;;;;;;;;5004874;28;19923;-67
2023/05/03 06:37:15;;;;;;;7.22;2.63;;;;;;;;;;5025576;28;20301;-69
2023/05/03 06:39:41;;;;;;;6.80;2.22;;;;;;;;;;5022925;28;20029;-68
2023/05/03 06:42:07;;;;;;;;;;;;;;;;;;5024733;28;20028;-68
2023/05/03 06:44:33;;;;;;;5.00;1.80;;;;;;;;;;5003464;28;19921;-67
2023/05/03 06:46:59;;;;;;;11.25;2.72;;;;;;;;;;5024274;28;20037;-67
2023/05/03 06:49:25;;;;;;;9.05;1.83;;;;;;;;;;5022495;28;20167;-71
2023/05/03 06:51:51;;;;;;;;;;;;;;;;;;5020568;28;21286;-68
2023/05/03 06:54:18;;;;;;;7.28;1.88;;;;;;;;;;5021989;28;19963;-70
2023/05/03 06:56:45;;;;;;;7.85;1.90;;;;;;;;;;5004073;28;20037;-69
2023/05/03 06:59:12;;;;;;;8.43;2.00;;;;;;;;;;5020269;28;20409;-69
2023/05/03 07:01:38;;;;;;;9.05;2.20;;;;;;;;;;5022385;28;20021;-69
2023/05/03 07:04:04;;;;;;;7.82;2.17;;;;;;;;;;5021494;28;20028;-67
2023/05/03 07:06:30;;;;;;;7.88;2.05;;;;;;;;;;5024289;28;20033;-70
2023/05/03 07:08:56;;;;;;;7.63;2.13;;;;;;;;;;5024964;28;20571;-68
2023/05/03 07:11:23;;;;;;;9.45;1.73;;;;;;;;;;5020397;28;20032;-67
2023/05/03 07:13:52;;;;;;;6.72;1.95;;;;;;;;;;5004774;28;20087;-68
2023/05/03 07:16:19;;;;;;;7.30;1.77;;;;;;;;;;5024505;28;20087;-68
2023/05/03 07:18:45;;;;;;;8.48;1.90;;;;;;;;;;5017892;28;20037;-68
2023/05/03 07:21:12;;;;;;;10.50;2.42;;;;;;;;;;5003546;28;20055;-68
2023/05/03 07:23:38;;;;;;;7.95;2.15;;;;;;;;;;5007644;28;20513;-68
2023/05/03 07:26:04;;;;;;;8.43;2.00;;;;;;;;;;5012988;28;20497;-68
2023/05/03 07:28:30;;;;;;;10.70;2.03;;;;;;;;;;5024286;28;20385;-68
2023/05/03 07:30:57;;;;;;;8.13;1.85;;;;;;;;;;5019786;28;20530;-67
2023/05/03 07:33:23;;;;;;;8.20;2.22;;;;;;;;;;5020934;28;20390;-68
2023/05/03 07:35:49;;;;;;;11.88;2.72;;;;;;;;;;5023018;28;20104;-68
2023/05/03 07:38:16;;;;;;;11.93;2.38;;;;;;;;;;5025460;28;20128;-67
2023/05/03 07:40:42;;;;;;;7.22;1.77;;;;;;;;;;5022013;28;20473;-68
2023/05/03 07:43:09;;;;;;;10.35;2.33;;;;;;;;;;5007540;28;20581;-68
2023/05/03 07:45:36;;;;;;;6.93;1.70;;;;;;;;;;5018934;28;20017;-68
2023/05/03 07:48:03;;;;;;;5.85;1.70;;;;;;;;;;5022832;28;20336;-68
2023/05/03 07:50:29;;;;;;;7.25;1.85;;;;;;;;;;5008003;28;20120;-68
2023/05/03 07:52:55;;;;;;;5.85;1.42;;;;;;;;;;5021152;28;20090;-68
2023/05/03 07:55:22;;;;;;;4.22;1.15;;;;;;;;;;5024624;28;20128;-69
2023/05/03 07:57:48;;;;;;;5.97;1.40;;;;;;;;;;5022543;28;20049;-69
2023/05/03 08:00:16;;;;;;;7.35;1.70;;;;;;;;;;5024016;28;20029;-69
2023/05/03 08:02:42;;;;;;;7.68;1.58;;;;;;;;;;5005301;28;20547;-70
2023/05/03 08:05:10;;;;;;;6.07;1.42;;;;;;;;;;5007975;28;20040;-69
2023/05/03 08:07:36;;;;;;;7.03;1.50;;;;;;;;;;5020316;28;20122;-68
2023/05/03 08:10:03;;;;;;;7.47;1.58;;;;;;;;;;5022748;28;20151;-68
2023/05/03 08:12:29;;;;;;;5.45;1.20;;;;;;;;;;5024596;28;20094;-68
2023/05/03 08:14:55;;;;;;;8.93;1.30;;;;;;;;;;5021804;28;20102;-68
2023/05/03 08:17:22;;;;;;;6.30;1.27;;;;;;;;;;5023154;28;20037;-69
2023/05/03 08:19:49;;;;;;;8.20;1.20;;;;;;;;;;5018078;28;20045;-68
2023/05/03 08:22:15;;;;;;;4.55;1.30;;;;;;;;;;5022928;28;20029;-68
2023/05/03 08:24:42;;;;;;;4.57;1.23;;;;;;;;;;5019076;28;20136;-70
2023/05/03 08:27:09;;;;;;;5.35;1.15;;;;;;;;;;5022751;28;20060;-69
2023/05/03 08:29:38;;;;;;;5.95;1.50;;;;;;;;;;5004409;28;20041;-69
2023/05/03 08:32:04;;;;;;;10.90;1.70;;;;;;;;;;5021588;28;20503;-70
2023/05/03 08:34:31;;;;;;;6.82;1.60;;;;;;;;;;5020519;28;20033;-70
2023/05/03 08:36:57;;;;;;;11.68;1.55;;;;;;;;;;5021774;28;20116;-70
2023/05/03 08:39:25;;;;;;;10.57;1.70;;;;;;;;;;5021271;28;20034;-70
2023/05/03 08:41:52;;;;;;;4.82;1.30;;;;;;;;;;5018191;28;20013;-71
2023/05/03 08:44:23;;;;;;;7.00;1.30;;;;;;;;;;5023841;28;20435;-71
2023/05/03 08:46:52;;;;;;;5.38;1.60;;;;;;;;;;5024742;28;20053;-71
2023/05/03 08:49:18;;;;;;;4.25;1.00;;;;;;;;;;5028396;28;20059;-71
2023/05/03 08:51:47;;;;;;;5.10;1.40;;;;;;;;;;5022837;28;20033;-71
2023/05/03 08:54:14;;;;;;;6.85;1.20;;;;;;;;;;5021366;28;20439;-71
2023/05/03 08:56:41;;;;;;;3.10;1.00;;;;;;;;;;5020262;28;20517;-71
2023/05/03 08:59:08;;;;;;;5.15;1.20;;;;;;;;;;5022035;28;20029;-70
2023/05/03 09:01:40;;;;;;;4.20;1.10;;;;;;;;;;5008560;28;20402;-71
2023/05/03 09:04:07;;;;;;;4.85;1.15;;;;;;;;;;5025250;28;20418;-70
2023/05/03 09:06:33;;;;;;;4.15;1.00;;;;;;;;;;5023707;28;20045;-70
2023/05/03 09:09:00;;;;;;;4.60;0.90;;;;;;;;;;5007029;28;20600;-69
2023/05/03 09:11:26;;;;;;;2.20;0.80;;;;;;;;;;5028143;28;20032;-68
2023/05/03 09:13:53;;;;;;;5.03;1.10;;;;;;;;;;5024796;28;20549;-69
2023/05/03 09:16:28;;;;;;;6.15;0.85;;;;;;;;;;5009275;28;20328;-70
2023/05/03 09:18:59;;;;;;;4.35;0.98;;;;;;;;;;5023680;28;20064;-69
2023/05/03 09:21:25;;;;;;;2.90;0.77;;;;;;;;;;5010140;28;20039;-69
2023/05/03 09:23:51;;;;;;;7.57;1.08;;;;;;;;;;5022228;28;20076;-69
2023/05/03 09:26:30;;;;;;;5.35;0.80;;;;;;;;;;5024960;28;20036;-68
2023/05/03 09:28:58;;;;;;;3.85;1.05;;;;;;;;;;5025141;28;20031;-69
2023/05/03 09:31:24;;;;;;;4.15;1.00;;;;;;;;;;5024480;28;20052;-70
2023/05/03 09:33:52;;;;;;;3.75;1.00;;;;;;;;;;5023042;28;20113;-68
2023/05/03 09:36:18;;;;;;;3.20;1.10;;;;;;;;;;5009415;28;20051;-68
2023/05/03 09:38:44;;;;;;;4.43;1.00;;;;;;;;;;5022006;28;20044;-69
2023/05/03 09:41:11;;;;;;;4.60;1.08;;;;;;;;;;5009765;28;20483;-69
2023/05/03 09:43:48;;;;;;;3.85;1.10;;;;;;;;;;5022253;28;20516;-69
2023/05/03 09:46:14;;;;;;;3.75;0.98;;;;;;;;;;5025270;28;20029;-69
2023/05/03 09:48:41;;;;;;;3.03;0.88;;;;;;;;;;5022841;28;20760;-69
2023/05/03 09:51:08;;;;;;;4.18;0.95;;;;;;;;;;5008419;28;20114;-70
2023/05/03 09:53:35;;;;;;;7.07;1.13;;;;;;;;;;5021447;28;20483;-68
2023/05/03 09:56:07;;;;;;;3.95;1.00;;;;;;;;;;5025257;28;20332;-70
2023/05/03 09:58:34;;;;;;;6.55;1.30;;;;;;;;;;5004880;28;20036;-69
2023/05/03 10:01:01;;;;;;;5.30;0.93;;;;;;;;;;5025481;28;20024;-71
2023/05/03 10:03:30;;;;;;;4.00;1.00;;;;;;;;;;5021637;28;20061;-69
2023/05/03 10:05:58;;;;;;;5.50;1.10;;;;;;;;;;5024347;28;20471;-69
2023/05/03 10:08:34;;;;;;;6.53;1.27;;;;;;;;;;5022712;28;20064;-69
2023/05/03 10:11:03;;;;;;;4.43;0.98;;;;;;;;;;5008297;28;20044;-69
2023/05/03 10:13:30;;;;;;;4.68;1.05;;;;;;;;;;5024108;28;20498;-70
2023/05/03 10:15:58;;;;;;;5.55;1.20;;;;;;;;;;5007386;28;20032;-69
2023/05/03 10:18:26;;;;;;;3.97;0.80;;;;;;;;;;5020163;28;20120;-70
2023/05/03 10:21:03;;;;;;;3.28;0.80;;;;;;;;;;5020654;28;20045;-71
2023/05/03 10:23:30;;;;;;;4.20;0.88;;;;;;;;;;5018224;28;20111;-70
2023/05/03 10:26:05;;;;;;;6.22;1.10;;;;;;;;;;5019629;28;20067;-71
2023/05/03 10:28:36;;;;;;;6.25;1.20;;;;;;;;;;5007497;28;20057;-70
2023/05/03 10:31:03;;;;;;;6.00;1.55;;;;;;;;;;5006469;28;20387;-71
2023/05/03 10:33:30;;;;;;;5.15;1.17;;;;;;;;;;5007157;28;20026;-69
2023/05/03 10:35:58;;;;;;;4.72;1.10;;;;;;;;;;5021655;28;20031;-69
2023/05/03 10:38:28;;;;;;;6.25;1.13;;;;;;;;;;5009042;28;20106;-70
2023/05/03 10:40:55;;;;;;;5.20;1.10;;;;;;;;;;5017073;28;20304;-71
2023/05/03 10:43:30;;;;;;;4.28;1.10;;;;;;;;;;5024228;28;20739;-70
2023/05/03 10:46:10;;;;;;;3.42;0.90;;;;;;;;;;5020963;28;20018;-69
2023/05/03 10:48:36;;;;;;;5.63;1.10;;;;;;;;;;4996791;28;20029;-71
2023/05/03 10:51:21;;;;;;;6.00;1.17;;;;;;;;;;5021672;28;20752;-70
2023/05/03 10:53:48;;;;;;;4.50;1.00;;;;;;;;;;5019666;28;20037;-69
2023/05/03 10:56:14;;;;;;;2.63;0.77;;;;;;;;;;5023186;28;20028;-70
2023/05/03 10:58:40;;;;;;;6.72;0.90;;;;;;;;;;5019096;28;20490;-71
2023/05/03 11:01:08;;;;;;;5.55;0.98;;;;;;;;;;5024699;28;20021;-70
2023/05/03 11:03:43;;;;;;;4.57;0.80;;;;;;;;;;5019219;28;20030;-70
2023/05/03 11:06:09;;;;;;;3.47;0.80;;;;;;;;;;5022383;28;20036;-70
2023/05/03 11:08:39;;;;;;;5.07;0.90;;;;;;;;;;5006531;28;20277;-70
2023/05/03 11:11:08;;;;;;;4.25;1.15;;;;;;;;;;5021956;28;20025;-70
2023/05/03 11:13:35;;;;;;;5.18;1.08;;;;;;;;;;5005281;28;20483;-70
2023/05/03 11:16:02;;;;;;;7.15;1.30;;;;;;;;;;5025995;28;20400;-69
2023/05/03 11:18:29;;;;;;;4.45;0.90;;;;;;;;;;5022071;28;20204;-67
2023/05/03 11:20:55;;;;;;;5.20;1.00;;;;;;;;;;5023992;28;20640;-70
2023/05/03 11:23:28;;;;;;;5.93;1.10;;;;;;;;;;5007885;28;20078;-69
2023/05/03 11:25:56;;;;;;;6.47;1.33;;;;;;;;;;5019827;28;20141;-68
2023/05/03 11:28:22;;;;;;;5.50;1.15;;;;;;;;;;5026095;28;20057;-69
2023/05/03 11:30:49;;;;;;;6.05;1.00;;;;;;;;;;5017738;28;20036;-69
2023/05/03 11:33:15;;;;;;;4.63;0.90;;;;;;;;;;5019867;28;20032;-71
2023/05/03 11:35:42;;;;;;;4.88;0.93;;;;;;;;;;5022250;28;20037;-71
2023/05/03 11:38:09;;;;;;;4.20;1.00;;;;;;;;;;5022298;28;20132;-71
2023/05/03 11:40:38;;;;;;;3.55;0.80;;;;;;;;;;5021190;28;20136;-71
2023/05/03 11:43:07;;;;;;;4.75;0.90;;;;;;;;;;5023710;28;20048;-72
2023/05/03 11:45:54;;;;;;;5.50;1.08;;;;;;;;;;5018072;28;20036;-70
2023/05/03 11:48:20;;;;;;;4.97;1.10;;;;;;;;;;5025837;28;20402;-68
2023/05/03 11:50:47;;;;;;;4.72;1.20;;;;;;;;;;5019525;28;20040;-71
2023/05/03 11:53:16;;;;;;;5.32;1.23;;;;;;;;;;5006315;28;20152;-69
2023/05/03 11:55:47;;;;;;;5.57;1.08;;;;;;;;;;4999159;28;20029;-67
2023/05/03 11:58:14;;;;;;;7.80;1.30;;;;;;;;;;5024960;28;20029;-72
2023/05/03 12:00:47;;;;;;;5.28;1.10;;;;;;;;;;5017420;28;20032;-70
2023/05/03 12:03:34;;;;;;;5.93;1.20;;;;;;;;;;5019349;28;20041;-70
2023/05/03 12:06:01;;;;;;;5.13;1.00;;;;;;;;;;5023900;28;20562;-69
2023/05/03 12:08:31;;;;;;;6.10;1.10;;;;;;;;;;5003370;28;20256;-67
2023/05/03 12:10:58;;;;;;;6.72;1.20;;;;;;;;;;5022631;28;20056;-70
2023/05/03 12:13:32;;;;;;;7.68;1.15;;;;;;;;;;5023974;28;20493;-70
2023/05/03 12:15:59;;;;;;;3.20;0.93;;;;;;;;;;5027978;28;20560;-69
2023/05/03 12:18:26;;;;;;;5.40;1.30;;;;;;;;;;5024967;28;20021;-70
2023/05/03 12:20:56;;;;;;;7.85;1.10;;;;;;;;;;5024535;28;20429;-69
2023/05/03 12:23:23;;;;;;;4.43;1.00;;;;;;;;;;5024100;28;20064;-70
2023/05/03 12:25:52;;;;;;;5.53;0.93;;;;;;;;;;5019780;28;20562;-69
2023/05/03 12:28:19;;;;;;;7.25;0.98;;;;;;;;;;5026871;28;20033;-69
2023/05/03 12:30:45;;;;;;;5.10;1.00;;;;;;;;;;5025479;28;20021;-69
2023/05/03 12:33:12;;;;;;;4.43;0.98;;;;;;;;;;5027085;28;20035;-70
2023/05/03 12:35:38;;;;;;;5.20;1.20;;;;;;;;;;5025493;28;20074;-68
2023/05/03 12:38:06;;;;;;;3.97;0.90;;;;;;;;;;5023798;28;20108;-69
2023/05/03 12:40:32;;;;;;;4.72;1.05;;;;;;;;;;5021263;28;20356;-69
2023/05/03 12:43:00;;;;;;;4.20;0.90;;;;;;;;;;5027561;28;20032;-69
2023/05/03 12:45:29;;;;;;;4.75;1.05;;;;;;;;;;5020246;28;20479;-70
2023/05/03 12:47:55;;;;;;;4.78;1.02;;;;;;;;;;5017873;28;20059;-70
2023/05/03 12:50:21;;;;;;;4.40;0.90;;;;;;;;;;5026483;28;20059;-70
2023/05/03 12:52:48;;;;;;;4.13;1.00;;;;;;;;;;5019069;28;20421;-70
2023/05/03 12:55:14;;;;;;;4.90;0.90;;;;;;;;;;5019902;28;20037;-71
2023/05/03 12:57:40;;;;;;;6.13;0.90;;;;;;;;;;5020158;28;20052;-70
2023/05/03 13:00:09;;;;;;;2.95;0.88;;;;;;;;;;5006330;28;20739;-70
2023/05/03 13:02:36;;;;;;;4.60;1.00;;;;;;;;;;5003691;28;20055;-70
2023/05/03 13:05:02;;;;;;;4.72;1.15;;;;;;;;;;5022579;28;20104;-70
2023/05/03 13:07:29;;;;;;;3.65;0.93;;;;;;;;;;5021778;28;20045;-69
2023/05/03 13:09:55;;;;;;;5.40;1.17;;;;;;;;;;5018268;28;20048;-69
2023/05/03 13:12:21;;;;;;;4.70;0.90;;;;;;;;;;5021047;28;20467;-70
2023/05/03 13:14:48;;;;;;;6.40;1.13;;;;;;;;;;5021181;28;20068;-70
2023/05/03 13:17:15;;;;;;;6.43;1.60;;;;;;;;;;5016410;28;20041;-70
2023/05/03 13:19:46;;;;;;;5.03;1.27;;;;;;;;;;5019850;28;20333;-70
2023/05/03 13:22:12;;;;;;;6.32;1.50;;;;;;;;;;5020737;28;20060;-71
2023/05/03 13:24:40;;;;;;;5.63;1.40;;;;;;;;;;5002042;28;20029;-69
2023/05/03 13:27:06;;;;;;;9.75;1.52;;;;;;;;;;5018591;28;20033;-70
2023/05/03 13:29:32;;;;;;;7.60;1.20;;;;;;;;;;5022815;28;20033;-68
2023/05/03 13:31:58;;;;;;;6.20;1.17;;;;;;;;;;5020554;28;20041;-69
2023/05/03 13:34:25;;;;;;;7.13;1.25;;;;;;;;;;5006793;28;20032;-69
2023/05/03 13:36:51;;;;;;;6.65;1.33;;;;;;;;;;5018359;28;20043;-69
2023/05/03 13:39:17;;;;;;;5.72;1.40;;;;;;;;;;5021502;28;20039;-69
2023/05/03 13:41:44;;;;;;;6.50;1.10;;;;;;;;;;5021070;28;20036;-70
2023/05/03 13:44:10;;;;;;;9.45;1.52;;;;;;;;;;5031120;28;20127;-71
2023/05/03 13:46:37;;;;;;;7.07;1.40;;;;;;;;;;5028077;28;20139;-70
2023/05/03 13:49:06;;;;;;;7.65;1.30;;;;;;;;;;5022808;28;20128;-70
2023/05/03 13:51:36;;;;;;;4.38;1.20;;;;;;;;;;5020221;28;20566;-70
2023/05/03 13:54:04;;;;;;;4.85;1.00;;;;;;;;;;5023050;28;20040;-69
2023/05/03 13:56:30;;;;;;;2.72;0.70;;;;;;;;;;5024596;28;20036;-69
2023/05/03 13:58:56;;;;;;;3.20;0.80;;;;;;;;;;5020226;28;20301;-69
2023/05/03 14:01:27;;;;;;;2.85;0.90;;;;;;;;;;5007158;28;20534;-69
2023/05/03 14:03:54;;;;;;;4.90;0.70;;;;;;;;;;5021669;28;20079;-69
2023/05/03 14:06:20;;;;;;;3.90;0.85;;;;;;;;;;5005033;28;20040;-65
2023/05/03 14:08:47;;;;;;;13.45;1.70;;;;;;;;;;5001890;28;20494;-70
2023/05/03 14:11:17;;;;;;;4.57;1.00;;;;;;;;;;5020225;28;20286;-64
2023/05/03 14:13:43;;;;;;;6.63;1.30;;;;;;;;;;5020305;28;20374;-71
2023/05/03 14:16:16;;;;;;;5.35;0.98;;;;;;;;;;5007252;28;20032;-71
2023/05/03 14:18:42;;;;;;;3.33;0.80;;;;;;;;;;5017219;28;20033;-69
2023/05/03 14:21:09;;;;;;;3.50;0.77;;;;;;;;;;5023036;28;20029;-68
2023/05/03 14:23:35;;;;;;;4.82;0.70;;;;;;;;;;5020064;28;20032;-64
2023/05/03 14:26:03;;;;;;;4.53;0.90;;;;;;;;;;5018910;28;20374;-63
2023/05/03 14:28:30;;;;;;;4.47;0.90;;;;;;;;;;5020372;28;20336;-65
2023/05/03 14:30:56;;;;;;;6.65;1.20;;;;;;;;;;5019113;28;20025;-70
2023/05/03 14:33:22;;;;;;;4.00;0.90;;;;;;;;;;5021760;28;20025;-63
2023/05/03 14:35:48;;;;;;;3.92;1.00;;;;;;;;;;5021019;28;20601;-64
2023/05/03 14:38:15;;;;;;;3.60;0.88;;;;;;;;;;5021124;28;20533;-67
2023/05/03 14:40:42;;;;;;;4.75;1.10;;;;;;;;;;5016316;28;20171;-64
2023/05/03 14:43:09;;;;;;;4.00;0.93;;;;;;;;;;5027226;28;20029;-65
2023/05/03 14:45:35;;;;;;;2.05;0.75;;;;;;;;;;5020709;28;20040;-70
2023/05/03 14:48:02;;;;;;;7.13;1.05;;;;;;;;;;5023966;28;20348;-69
2023/05/03 14:50:28;;;;;;;4.13;0.80;;;;;;;;;;5021701;28;20039;-69
2023/05/03 14:52:55;;;;;;;4.75;0.88;;;;;;;;;;5019937;28;20135;-65
2023/05/03 14:55:22;;;;;;;4.93;0.93;;;;;;;;;;5004086;28;20045;-66